• Join FlightAware (Why Join?)
  • Login
  • US Flag 
01:15AM EDT


 

Airport Tracker/Info


-or-


 

Live Flight TrackerFlight Track Log ✈ SKW6345 ✈ 09-Aug-2013 ✈ KBZN - KSFO

Flight Track Log - Related Links

Times and Time Zones

All times are in EDT time to prevent confusion due to time zone crossing. See the SKW6345 flight status page for this flight to view local times or setup timezone preferences in your user account.

Time Position Orientation Groundspeed Altitude Reporting Facility
EDT Latitude Longitude Course Direction KTS MPH feet Rate Location/Type
04:22PM 45.7464 -111.1253 290° West 193 222 5,800  Level Salt Lake Center
04:23PM 45.7047 -111.1956 230° Southwest 240 276 8,000 2,160 Climbing Salt Lake Center
04:24PM 45.7322 -111.5418 282° West  Level FlightAware Approximate
04:24PM 45.7064 -111.2914 271° West 244 281 10,300  Level Salt Lake Center
04:25PM 45.7478 -111.6982 288° West  Level FlightAware Approximate
04:25PM 45.7217 -111.4203 280° West 260 299 12,200  Level Salt Lake Center
04:26PM 45.7795 -111.8409 288° West  Level FlightAware Approximate
04:26PM 45.7344 -111.5383 279° West 279 321 13,900  Level Salt Lake Center
04:27PM 45.8124 -111.9830 290° West  Level FlightAware Approximate
04:27PM 45.7483 -111.6628 279° West 306 352 15,400  Level Salt Lake Center
04:28PM 45.7778 -111.7908 288° West 334 384 16,500 1,080 Climbing Salt Lake Center
04:29PM 45.8072 -111.9242 288° West 348 400 17,700 1,200 Climbing Salt Lake Center
04:30PM 45.8372 -112.0583 288° West 353 406 19,100 1,200 Climbing Salt Lake Center
04:31PM 45.8428 -112.1958 273° West 360 414 20,200 1,140 Climbing Salt Lake Center
04:32PM 45.7744 -112.3378 235° Southwest 361 415 21,500 1,140 Climbing Salt Lake Center
04:33PM 45.7136 -112.4525 233° Southwest 363 418 22,600 900 Climbing Salt Lake Center
04:34PM 45.6525 -112.5703 233° Southwest 367 422 23,400 720 Climbing Salt Lake Center
04:35PM 45.5903 -112.6881 233° Southwest 370 426 24,100 720 Climbing Salt Lake Center
04:36PM 45.5264 -112.8086 233° Southwest 380 437 25,000 720 Climbing Salt Lake Center
04:37PM 45.4619 -112.9292 233° Southwest 384 442 25,600 540 Climbing Salt Lake Center
04:38PM 45.3839 -113.0753 233° Southwest 387 445 26,200 540 Climbing Salt Lake Center
04:39PM 45.3189 -113.1958 233° Southwest 394 453 26,800 480 Climbing Salt Lake Center
04:41PM 45.2547 -113.3139 232° Southwest 396 456 27,200 480 Climbing Salt Lake Center
04:42PM 45.1786 -113.4550 233° Southwest 402 463 27,800 480 Climbing Salt Lake Center
04:43PM 45.1094 -113.5692 229° Southwest 399 459 28,200 300 Climbing Salt Lake Center
04:44PM 45.0103 -113.6719 216° Southwest 396 456 28,500 480 Climbing Salt Lake Center
04:45PM 44.9281 -113.7667 219° Southwest 398 458 29,200 540 Climbing Salt Lake Center
04:46PM 44.8375 -113.8742 220° Southwest 384 442 29,700 480 Climbing Salt Lake Center
04:47PM 44.7472 -113.9792 220° Southwest 385 443 30,200 300 Climbing Salt Lake Center
04:48PM 44.6661 -114.0694 218° Southwest 388 447 30,400 180 Climbing Salt Lake Center
04:49PM 44.5825 -114.1617 218° Southwest 396 456 30,600 240 Climbing Salt Lake Center
04:50PM 44.4900 -114.2794 222° Southwest 402 463 31,000 360 Climbing Salt Lake Center
04:51PM 44.4172 -114.3897 227° Southwest 403 464 31,400 360 Climbing Salt Lake Center
04:52PM 44.3461 -114.5339 235° Southwest 405 466 31,800 240 Climbing Salt Lake Center
04:53PM 44.2850 -114.6581 236° Southwest 405 466 32,000 60 Climbing Salt Lake Center
04:54PM 44.2114 -114.8067 235° Southwest 411 473 32,000  Level Salt Lake Center
04:55PM 44.1472 -114.9333 235° Southwest 415 478 32,000  Level Salt Lake Center
04:56PM 44.0692 -115.0856 235° Southwest 426 490 32,000  Level Salt Lake Center
04:57PM 44.0039 -115.2142 235° Southwest 423 487 32,000  Level Salt Lake Center
04:58PM 43.9272 -115.3642 235° Southwest 422 486 32,000  Level Salt Lake Center
04:59PM 43.8611 -115.4928 235° Southwest 426 490 32,000  Level Salt Lake Center
05:00PM 43.7947 -115.6219 235° Southwest 425 489 32,000  Level Salt Lake Center
05:01PM 43.7169 -115.7747 235° Southwest 433 498 32,000  Level Salt Lake Center
05:02PM 43.6497 -115.9039 234° Southwest 432 497 32,000  Level Salt Lake Center
05:03PM 43.5722 -116.0533 234° Southwest 428 493 32,000  Level Salt Lake Center
05:04PM 43.5056 -116.1808 234° Southwest 427 491 32,000  Level Salt Lake Center
05:05PM 43.4281 -116.3286 234° Southwest 424 488 32,000  Level Salt Lake Center
05:06PM 43.3608 -116.4544 234° Southwest 426 490 32,000  Level Salt Lake Center
05:07PM 43.2831 -116.5997 234° Southwest 421 484 32,000  Level Salt Lake Center
05:08PM 43.2161 -116.7242 234° Southwest 422 486 32,000  Level Salt Lake Center
05:09PM 43.1500 -116.8489 234° Southwest 423 487 32,000  Level Salt Lake Center
05:11PM 43.0722 -116.9922 233° Southwest 420 483 32,000  Level Salt Lake Center
05:12PM 43.0058 -117.1167 234° Southwest 424 488 32,000  Level Salt Lake Center
05:13PM 42.9269 -117.2603 233° Southwest 423 487 32,000  Level Salt Lake Center
05:14PM 42.8597 -117.3836 233° Southwest 423 487 32,000  Level Salt Lake Center
05:15PM 42.7811 -117.5244 233° Southwest 420 483 32,000  Level Salt Lake Center
05:16PM 42.7131 -117.6478 233° Southwest 425 489 32,000  Level Salt Lake Center
05:17PM 42.6350 -117.7908 233° Southwest 424 488 32,000  Level Salt Lake Center
05:18PM 42.5619 -117.9061 229° Southwest 420 483 32,000  Level Salt Lake Center
05:19PM 42.4644 -118.0214 221° Southwest 414 476 32,000  Level Salt Lake Center
05:20PM 42.3806 -118.1236 222° Southwest 424 488 32,000  Level Salt Lake Center
05:21PM 42.2894 -118.2331 222° Southwest 414 476 32,000  Level Salt Lake Center
05:22PM 42.2064 -118.3331 222° Southwest 417 480 32,000  Level Salt Lake Center
05:23PM 42.1094 -118.4481 221° Southwest 414 476 32,000  Level Salt Lake Center
05:24PM 42.0267 -118.5472 222° Southwest 416 479 32,000  Level Salt Lake Center
05:25PM 41.9297 -118.6628 222° Southwest 417 480 32,000  Level Salt Lake Center
05:26PM 41.8461 -118.7600 221° Southwest 417 480 32,000  Level Salt Lake Center
05:27PM 41.7492 -118.8750 222° Southwest 417 480 32,000  Level Salt Lake Center
05:28PM 41.6658 -118.9708 221° Southwest 416 479 32,000  Level Salt Lake Center
05:30PM 41.5136 -119.1478 221° Southwest 414 476 32,000  Level Salt Lake Center
05:30PM 41.4561 -119.2128 220° Southwest 418 481 32,000  Level Oakland Center
05:32PM 41.3683 -119.3147 221° Southwest 419 482 32,000  Level Oakland Center
05:33PM 41.2822 -119.4131 221° Southwest 412 474 32,000  Level Oakland Center
05:34PM 41.1953 -119.5117 220° Southwest 411 473 32,000  Level Oakland Center
05:35PM 41.1067 -119.6114 220° Southwest 414 476 32,000  Level Oakland Center
05:36PM 41.0175 -119.7172 222° Southwest 408 470 32,000  Level Oakland Center
05:37PM 40.9172 -119.8267 220° Southwest 411 473 32,000  Level Oakland Center
05:38PM 40.8289 -119.9261 220° Southwest 417 480 32,000  Level Oakland Center
05:39PM 40.7475 -120.0172 220° Southwest 397 457 32,000  Level Oakland Center
05:40PM 40.6608 -120.1150 221° Southwest 404 465 32,000  Level Oakland Center
05:41PM 40.5736 -120.2131 221° Southwest 407 468 32,000  Level Oakland Center
05:42PM 40.4728 -120.3292 221° Southwest 406 467 32,000  Level Oakland Center
05:43PM 40.3886 -120.4228 220° Southwest 401 461 32,000  Level Oakland Center
05:44PM 40.3019 -120.5153 219° Southwest 402 463 32,000  Level Oakland Center
05:45PM 40.2156 -120.6111 220° Southwest 406 467 32,000  Level Oakland Center
05:46PM 40.1286 -120.7072 220° Southwest 408 470 32,000  Level Oakland Center
05:47PM 40.0400 -120.8036 220° Southwest 412 474 32,000  Level Oakland Center
05:48PM 39.9450 -120.9056 219° Southwest 409 471 32,000  Level Oakland Center
05:49PM 39.8589 -121.0011 220° Southwest 406 467 32,000  Level Oakland Center
05:50PM 39.7719 -121.0933 219° Southwest 404 465 32,000  Level Oakland Center
05:51PM 39.6936 -121.2261 233° Southwest 417 480 32,000  Level Oakland Center
05:52PM 39.6361 -121.3553 240° Southwest 413 475 32,000  Level Oakland Center
05:53PM 39.5750 -121.4822 238° Southwest 415 478 32,000  Level Oakland Center
05:54PM 39.5053 -121.5986 232° Southwest 410 472 32,000  Level Oakland Center
05:55PM 39.4094 -121.6894 216° Southwest 408 470 32,000  Level Oakland Center
05:56PM 39.3172 -121.7725 215° Southwest 405 466 32,000 -180 Level Oakland Center
05:57PM 39.2258 -121.8564 215° Southwest 404 465 31,700 -1,020 Descending Oakland Center
05:58PM 39.1328 -121.9392 215° Southwest 408 470 30,000 -1,860 Descending Oakland Center
05:59PM 39.0281 -122.0333 215° Southwest 385 443 27,900 -1,860 Descending Oakland Center
06:00PM 38.9442 -122.1078 215° Southwest 372 428 26,200 -1,680 Descending Oakland Center
06:01PM 38.8592 -122.1833 215° Southwest 373 429 24,500 -1,680 Descending Oakland Center
06:02PM 38.7756 -122.2581 215° Southwest 370 426 22,800 -1,680 Descending Oakland Center
06:03PM 38.6956 -122.3306 215° Southwest 359 413 21,100 -1,740 Descending Oakland Center
06:04PM 38.6131 -122.4019 214° Southwest 348 400 19,300 -1,740 Descending Oakland Center
06:05PM 38.5350 -122.4714 215° Southwest 344 396 17,600 -1,680 Descending Oakland Center
06:06PM 38.4578 -122.5389 214° Southwest 340 391 15,900 -1,800 Descending Oakland Center
06:08PM 38.3669 -122.6172 214° Southwest 332 382 13,900 -1,860 Descending Oakland Center
06:09PM 38.2922 -122.6825 214° Southwest 329 379 12,200 -1,500 Descending Oakland Center
06:10PM 38.1986 -122.7019 189° South 358 412 10,900 -660 Descending Oakland Center
06:11PM 38.1022 -122.6922 175° South 351 404 10,900  Level Oakland Center
06:12PM 38.0069 -122.6828 176° South 347 399 10,900  Level Oakland Center
06:13PM 37.9067 -122.6689 174° South 313 360 10,900  Level Oakland Center
06:14PM 37.8519 -122.6194 144° Southeast 257 296 10,900  Level Oakland Center
06:15PM 37.7833 -122.5500 141° Southeast 247 284 11,000  Climbing Northern Cal TRACON
06:16PM 37.7333 -122.5000 142° Southeast 247 284 11,000  Level Northern Cal TRACON
06:17PM 37.6833 -122.4333 133° Southeast 248 285 11,000  Level Northern Cal TRACON
06:18PM 37.6167 -122.3833 149° Southeast 256 295 11,000 -540 Level Northern Cal TRACON
06:19PM 37.5722 -122.3419 144° Southeast 247 284 10,000 -1,320 Descending Oakland Center
06:20PM 37.5089 -122.3075 157° South 247 284 8,400 -1,500 Descending Oakland Center
06:21PM 37.4525 -122.2614 147° Southeast 251 289 6,900 -1,260 Descending Oakland Center
06:22PM 37.4600 -122.1831 83° East 239 275 5,900 -1,020 Descending Oakland Center
06:23PM 37.5167 -122.1500 25° Northeast 201 231 4,900 -1,380 Descending Northern Cal TRACON
06:24PM 37.5500 -122.2000 310° West 194 223 3,200 -1,440 Descending Northern Cal TRACON
06:25PM 37.5667 -122.2667 288° West 184 212 2,100 -1,020 Descending Northern Cal TRACON
06:26PM 37.5833 -122.3000 302° West 137 158 1,200 -900 Descending Northern Cal TRACON
06:27PM 37.6000 -122.3333 302° West 130 150 400 -840 Descending Northern Cal TRACON